Time;durP1;ratioP1;P1;durP2;ratioP2;P2;SDS_P1;SDS_P2;PMS_P1;PMS_P2;Temp;Humidity;BMP_temperature;BMP_pressure;BME280_temperature;BME280_humidity;BME280_pressure;Samples;Min_cycle;Max_cycle;Signal;HPM_P1;HPM_P2
2023/06/12 07:54:48;;;;;;;8.93;5.55;;;;;;;25.09;40.70;99707.59;1086478;54;20007;-83
2023/06/12 07:55:53;;;;;;;8.82;4.93;;;;;;;25.02;40.92;99710.53;1087929;39;20818;-83
2023/06/12 07:56:54;;;;;;;8.50;5.03;;;;;;;25.01;40.41;99714.34;1086490;47;20031;-81
2023/06/12 07:57:58;;;;;;;6.35;4.43;;;;;;;25.06;40.55;99713.59;1086597;47;21183;-84
2023/06/12 07:59:05;;;;;;;6.80;4.93;;;;;;;25.16;39.69;99701.97;1086566;54;20056;-82
2023/06/12 08:00:10;;;;;;;5.82;4.90;;;;;;;25.13;39.78;99711.50;1086441;47;20052;-83
2023/06/12 08:01:23;;;;;;;9.48;5.35;;;;;;;24.98;39.97;99709.34;1086480;54;20086;-82
2023/06/12 08:02:31;;;;;;;6.45;4.45;;;;;;;25.22;39.43;99710.00;1086571;47;21010;-81
2023/06/12 08:03:39;;;;;;;6.78;5.10;;;;;;;25.40;39.39;99704.56;1086486;47;20057;-83
2023/06/12 08:04:44;;;;;;;7.15;5.00;;;;;;;25.14;39.34;99693.19;1086458;47;20488;-83
2023/06/12 08:05:48;;;;;;;6.65;4.38;;;;;;;24.97;40.00;99704.16;1086390;47;20026;-80
2023/06/12 08:06:54;;;;;;;6.22;4.60;;;;;;;25.00;39.81;99706.34;1086378;54;20057;-84
2023/06/12 08:07:58;;;;;;;5.55;4.35;;;;;;;25.17;39.75;99693.53;1086318;47;20026;-83
2023/06/12 08:09:02;;;;;;;7.78;4.88;;;;;;;25.27;39.64;99701.06;1086475;47;20067;-82
2023/06/12 08:10:10;;;;;;;8.18;5.38;;;;;;;25.38;39.29;99694.66;1086542;47;20027;-84
2023/06/12 08:11:11;;;;;;;6.60;4.82;;;;;;;25.28;39.41;99699.97;1086427;47;20088;-83
2023/06/12 08:12:16;;;;;;;7.78;5.07;;;;;;;25.33;39.13;99691.84;1086406;47;20034;-81
2023/06/12 08:13:17;;;;;;;7.97;5.28;;;;;;;25.37;39.11;99701.19;1086538;54;20034;-80
2023/06/12 08:14:21;;;;;;;9.52;5.15;;;;;;;25.49;38.77;99700.31;1086442;47;20026;-83
2023/06/12 08:15:23;;;;;;;7.82;5.00;;;;;;;25.55;38.19;99707.50;1086431;47;20026;-84
2023/06/12 08:16:27;;;;;;;6.07;4.72;;;;;;;25.47;38.26;99700.53;1086415;51;20022;-78
2023/06/12 08:17:32;;;;;;;7.43;4.47;;;;;;;25.44;38.24;99700.22;1086465;47;20053;-80
2023/06/12 08:18:34;;;;;;;6.85;4.40;;;;;;;25.44;38.43;99694.75;1086522;51;20030;-82
2023/06/12 08:19:39;;;;;;;6.03;4.70;;;;;;;25.47;38.22;99700.53;1086505;47;20056;-82
2023/06/12 08:20:40;;;;;;;7.00;5.05;;;;;;;25.74;37.91;99705.28;1086373;47;20049;-81
2023/06/12 08:21:44;;;;;;;7.75;5.18;;;;;;;25.95;37.51;99691.84;1086436;47;20026;-83
2023/06/12 08:22:46;;;;;;;6.78;4.85;;;;;;;26.26;36.98;99701.25;1086415;47;20022;-82
2023/06/12 08:23:50;;;;;;;6.28;4.88;;;;;;;25.81;37.91;99694.13;1086504;47;20050;-82
2023/06/12 08:24:55;;;;;;;6.53;4.60;;;;;;;25.74;38.05;99690.78;1086325;47;20026;-81
2023/06/12 08:26:04;;;;;;;8.63;5.28;;;;;;;25.64;38.41;99691.47;1086397;47;20141;-83
2023/06/12 08:27:08;;;;;;;7.55;5.53;;;;;;;25.74;38.40;99688.84;1086384;47;20046;-81
2023/06/12 08:28:10;;;;;;;10.45;5.53;;;;;;;25.80;38.41;99690.59;1086472;47;20026;-80
2023/06/12 08:29:17;;;;;;;6.57;5.50;;;;;;;25.87;37.97;99689.56;1086430;47;20122;-82
2023/06/12 08:30:19;;;;;;;5.95;5.00;;;;;;;25.96;38.30;99686.13;1086803;39;20845;-81
2023/06/12 08:31:23;;;;;;;7.13;5.00;;;;;;;26.00;38.09;99686.44;1086342;54;20034;-81
2023/06/12 08:32:24;;;;;;;6.35;4.82;;;;;;;26.08;37.76;99686.00;1086503;47;20027;-83
2023/06/12 08:33:28;;;;;;;10.02;5.13;;;;;;;25.90;37.69;99681.66;1086403;47;20038;-82
2023/06/12 08:34:32;;;;;;;7.20;5.15;;;;;;;26.00;37.43;99689.19;1086505;47;20034;-79
2023/06/12 08:35:35;;;;;;;6.22;4.95;;;;;;;26.24;37.53;99677.97;1086454;54;20113;-82
2023/06/12 08:36:39;;;;;;;6.72;5.07;;;;;;;26.06;37.38;99685.41;1086406;47;20067;-82
2023/06/12 08:37:41;;;;;;;8.23;5.20;;;;;;;25.68;37.58;99677.03;1086406;47;20105;-80
2023/06/12 08:38:47;;;;;;;6.55;5.25;;;;;;;25.62;37.35;99693.63;1086357;47;20079;-81
2023/06/12 08:39:53;;;;;;;5.90;4.63;;;;;;;26.03;36.81;99682.34;1086258;47;20023;-82
2023/06/12 08:40:57;;;;;;;5.90;4.70;;;;;;;26.09;36.40;99681.34;1086320;54;20023;-80
2023/06/12 08:42:07;;;;;;;7.38;4.68;;;;;;;26.21;36.46;99683.97;1086300;47;20476;-78
2023/06/12 08:43:11;;;;;;;6.10;4.40;;;;;;;26.25;36.60;99688.69;1086298;47;20071;-82
2023/06/12 08:44:14;;;;;;;6.55;4.95;;;;;;;26.43;36.32;99679.25;1086340;47;20033;-82
2023/06/12 08:45:22;;;;;;;7.63;4.93;;;;;;;26.42;36.22;99674.03;1086381;47;20051;-81
2023/06/12 08:46:28;;;;;;;6.70;4.97;;;;;;;26.55;36.03;99679.09;1086318;54;20060;-82
2023/06/12 08:47:33;;;;;;;5.95;4.53;;;;;;;26.65;35.84;99672.88;1086357;47;20030;-82
2023/06/12 08:48:37;;;;;;;5.82;4.30;;;;;;;26.81;36.01;99675.78;1086466;54;20045;-82
2023/06/12 08:49:38;;;;;;;6.05;4.38;;;;;;;26.82;35.82;99678.28;1086537;47;20051;-83
2023/06/12 08:50:42;;;;;;;5.93;4.95;;;;;;;26.88;35.95;99679.97;1086821;51;20621;-85
2023/06/12 08:51:46;;;;;;;6.55;4.72;;;;;;;27.11;35.51;99671.63;1088167;39;20778;-83
2023/06/12 08:52:47;;;;;;;6.25;4.60;;;;;;;27.05;35.39;99670.75;1086693;54;20034;-80
2023/06/12 08:53:51;;;;;;;5.82;4.32;;;;;;;26.66;35.28;99669.06;1086786;47;20063;-80
2023/06/12 08:54:55;;;;;;;5.57;4.32;;;;;;;26.87;34.98;99670.06;1086588;54;21145;-84
2023/06/12 08:55:57;;;;;;;7.03;4.80;;;;;;;26.73;35.18;99674.34;1086642;54;20041;-82
2023/06/12 08:57:05;;;;;;;9.82;4.65;;;;;;;26.19;35.78;99673.25;1086756;47;20058;-84
2023/06/12 08:58:07;;;;;;;5.88;4.10;;;;;;;26.27;36.02;99686.47;1086968;54;20038;-81
2023/06/12 08:59:11;;;;;;;6.65;5.03;;;;;;;26.51;35.35;99677.13;1087810;39;20734;-81
2023/06/12 09:00:17;;;;;;;6.50;4.97;;;;;;;26.72;35.05;99667.19;1086742;54;20061;-80
2023/06/12 09:01:18;;;;;;;6.38;5.00;;;;;;;26.65;35.36;99666.56;1087738;39;21393;-82
2023/06/12 09:02:25;;;;;;;5.28;4.40;;;;;;;26.65;35.03;99672.03;1086766;47;20086;-83
2023/06/12 09:03:27;;;;;;;5.50;4.63;;;;;;;26.71;35.10;99666.34;1086508;47;20030;-81
2023/06/12 09:04:41;;;;;;;9.20;5.50;;;;;;;26.71;34.56;99665.53;1086697;54;20030;-83
2023/06/12 09:05:46;;;;;;;5.35;4.45;;;;;;;26.99;34.37;99666.31;1086611;47;20034;-81
2023/06/12 09:06:50;;;;;;;11.60;4.93;;;;;;;27.03;33.48;99665.53;1089926;31;20822;-81
2023/06/12 09:07:55;;;;;;;7.75;4.80;;;;;;;26.52;33.82;99662.34;1086785;54;20039;-80
2023/06/12 09:08:58;;;;;;;6.78;4.75;;;;;;;26.54;34.17;99660.16;1086600;47;20034;-79
2023/06/12 09:10:03;;;;;;;6.13;4.47;;;;;;;26.67;34.13;99658.91;1086723;54;20034;-82
2023/06/12 09:11:04;;;;;;;6.55;4.82;;;;;;;26.60;33.83;99662.69;1086514;47;20049;-79
2023/06/12 09:12:13;;;;;;;6.80;5.05;;;;;;;26.71;33.98;99654.56;1086622;47;20022;-84
2023/06/12 09:13:17;;;;;;;7.55;4.43;;;;;;;26.66;34.31;99660.84;1086589;47;20141;-80
2023/06/12 09:14:20;;;;;;;7.25;4.90;;;;;;;27.07;33.68;99657.59;1086710;46;20052;-80
2023/06/12 09:15:24;;;;;;;7.65;5.40;;;;;;;26.89;33.93;99662.41;1086601;47;20098;-80
2023/06/12 09:16:27;;;;;;;8.75;4.95;;;;;;;26.77;34.84;99664.50;1087820;39;21116;-80
2023/06/12 09:17:33;;;;;;;8.82;4.97;;;;;;;26.54;35.01;99655.53;1086619;47;20030;-82
2023/06/12 09:18:34;;;;;;;7.43;4.90;;;;;;;26.89;34.50;99662.41;1086680;54;20069;-81
2023/06/12 09:19:39;;;;;;;8.93;5.47;;;;;;;26.89;34.89;99662.41;1087628;39;20319;-82
2023/06/12 09:20:41;;;;;;;7.63;5.80;;;;;;;26.87;34.86;99667.34;1086817;54;20037;-81
2023/06/12 09:21:49;;;;;;;7.30;5.25;;;;;;;26.98;34.98;99668.22;1086696;54;20038;-84
2023/06/12 09:22:51;;;;;;;7.35;4.72;;;;;;;27.02;34.70;99663.03;1086659;54;20037;-82
2023/06/12 09:23:57;;;;;;;7.13;5.57;;;;;;;26.74;35.02;99671.31;1086648;47;20030;-82
2023/06/12 09:25:05;;;;;;;6.45;4.70;;;;;;;26.07;35.12;99673.38;1086724;47;20041;-79
2023/06/12 09:26:15;;;;;;;7.57;5.03;;;;;;;25.96;35.00;99677.06;1086688;54;20042;-80
2023/06/12 09:27:22;;;;;;;6.63;4.93;;;;;;;25.90;34.73;99672.63;1086618;47;20031;-78
2023/06/12 09:28:30;;;;;;;9.77;5.13;;;;;;;25.65;35.15;99677.53;1086635;47;21278;-80
2023/06/12 09:29:35;;;;;;;7.10;4.53;;;;;;;25.66;35.02;99686.56;1086707;47;20029;-79
2023/06/12 09:30:38;;;;;;;6.53;4.82;;;;;;;25.62;34.70;99686.25;1086816;54;20094;-83
2023/06/12 09:31:43;;;;;;;6.95;4.53;;;;;;;25.68;34.83;99687.97;1086798;47;20030;-82
2023/06/12 09:32:44;;;;;;;6.57;5.07;;;;;;;25.68;34.47;99677.03;1086617;47;20048;-81
2023/06/12 09:33:53;;;;;;;7.20;4.45;;;;;;;25.57;34.09;99680.72;1086697;54;20026;-79
2023/06/12 09:34:57;;;;;;;5.60;4.15;;;;;;;25.47;34.30;99678.66;1086937;54;20031;-79
2023/06/12 09:35:59;;;;;;;6.18;4.40;;;;;;;25.49;34.22;99673.75;1086846;47;20007;-83
2023/06/12 09:37:04;;;;;;;6.40;4.80;;;;;;;25.47;34.38;99675.91;1086618;47;20049;-83
2023/06/12 09:38:06;;;;;;;8.45;4.93;;;;;;;25.46;34.41;99673.44;1087631;39;20846;-80
2023/06/12 09:39:10;;;;;;;6.32;4.57;;;;;;;25.50;34.17;99669.13;1086834;47;20054;-78
2023/06/12 09:40:13;;;;;;;7.20;5.50;;;;;;;25.92;33.52;99671.28;1086849;47;20026;-83
2023/06/12 09:41:16;;;;;;;5.63;4.22;;;;;;;26.24;33.72;99673.31;1087948;39;21244;-81
2023/06/12 09:42:36;;;;;;;5.80;4.70;;;;;;;26.51;33.04;99668.91;1087115;47;20081;-85
2023/06/12 09:43:40;;;;;;;7.68;4.65;;;;;;;26.77;32.65;99659.03;1087036;47;20027;-81
2023/06/12 09:44:44;;;;;;;6.05;4.25;;;;;;;26.93;32.44;99668.19;1087081;47;20194;-81
2023/06/12 09:45:51;;;;;;;7.40;4.70;;;;;;;26.71;32.44;99662.78;1087150;54;20169;-80
2023/06/12 09:46:55;;;;;;;8.00;5.15;;;;;;;26.50;33.02;99678.25;1087109;54;20065;-84
2023/06/12 09:48:04;;;;;;;5.78;4.57;;;;;;;26.70;33.21;99675.66;1088449;46;20067;-82
2023/06/12 09:49:12;;;;;;;6.20;4.30;;;;;;;27.19;32.38;99665.63;1088582;39;20366;-82
2023/06/12 09:50:15;;;;;;;7.72;5.03;;;;;;;27.46;31.71;99667.44;1087104;47;20051;-81
2023/06/12 09:51:20;;;;;;;7.13;4.85;;;;;;;27.49;32.20;99664.19;1087006;54;20042;-81
2023/06/12 09:52:22;;;;;;;7.25;4.60;;;;;;;27.36;32.05;99658.03;1087033;47;20038;-79
2023/06/12 09:53:26;;;;;;;8.02;4.50;;;;;;;27.41;32.14;99660.00;1087070;47;20042;-80
2023/06/12 09:54:33;;;;;;;5.78;4.50;;;;;;;27.18;32.71;99653.84;1087290;54;20037;-81
2023/06/12 09:55:34;;;;;;;6.95;4.70;;;;;;;27.28;32.54;99663.22;1086977;54;20250;-82
2023/06/12 09:56:39;;;;;;;6.15;4.72;;;;;;;27.47;32.22;99656.22;1089541;39;20347;-83
2023/06/12 09:57:48;;;;;;;6.20;4.20;;;;;;;27.41;31.59;99657.25;1087114;54;20087;-81
2023/06/12 09:58:50;;;;;;;6.53;4.50;;;;;;;27.42;31.45;99656.16;1090150;39;20361;-82
2023/06/12 09:59:57;;;;;;;5.80;4.57;;;;;;;27.15;31.51;99657.09;1086898;47;20027;-81
2023/06/12 10:01:03;;;;;;;6.32;4.53;;;;;;;27.44;31.25;99645.78;1086975;54;20027;-81
2023/06/12 10:02:13;;;;;;;6.55;4.78;;;;;;;27.08;31.35;99664.75;1087838;39;20726;-81
2023/06/12 10:03:19;;;;;;;6.25;4.72;;;;;;;27.60;30.56;99656.81;1086915;47;20886;-82
2023/06/12 10:04:30;;;;;;;6.00;4.65;;;;;;;27.93;30.30;99652.00;1086971;54;20065;-83
2023/06/12 10:05:35;;;;;;;;;;;;;;;28.14;30.12;99647.41;1087079;47;20019;-84
2023/06/12 10:06:45;;;;;;;7.05;4.75;;;;;;;27.99;30.12;99645.44;1088280;39;20207;-82
2023/06/12 10:07:48;;;;;;;6.35;4.22;;;;;;;27.94;30.34;99645.44;1086808;47;20026;-83
2023/06/12 10:08:54;;;;;;;6.10;4.15;;;;;;;27.77;30.54;99651.13;1086979;54;20057;-81
2023/06/12 10:09:56;;;;;;;5.30;4.10;;;;;;;28.09;30.31;99644.69;1086861;47;20075;-82
2023/06/12 10:11:00;;;;;;;5.97;3.85;;;;;;;28.29;29.90;99649.38;1086837;47;20037;-83
2023/06/12 10:12:06;;;;;;;5.78;4.50;;;;;;;28.35;29.74;99636.47;1086909;54;20026;-83
2023/06/12 10:13:14;;;;;;;5.95;4.88;;;;;;;28.64;29.13;99642.25;1086785;46;20030;-80
2023/06/12 10:14:17;;;;;;;6.15;4.18;;;;;;;28.12;29.49;99633.97;1086863;54;20034;-81
2023/06/12 10:15:23;;;;;;;6.10;4.68;;;;;;;28.37;29.39;99635.09;1086660;47;20456;-80
2023/06/12 10:16:25;;;;;;;6.82;4.47;;;;;;;28.49;29.17;99643.06;1086886;47;20030;-81
2023/06/12 10:17:31;;;;;;;5.57;4.50;;;;;;;28.30;29.33;99637.28;1086906;54;20034;-81
2023/06/12 10:18:36;;;;;;;6.25;4.75;;;;;;;28.54;28.88;99645.00;1087246;54;20057;-83
2023/06/12 10:19:40;;;;;;;7.38;4.80;;;;;;;28.64;28.79;99634.84;1086747;47;20034;-80
2023/06/12 10:20:44;;;;;;;6.10;4.93;;;;;;;28.36;29.38;99636.19;1086731;47;20026;-81
2023/06/12 10:21:46;;;;;;;5.70;4.22;;;;;;;28.64;28.95;99645.84;1088132;39;20344;-84
2023/06/12 10:22:51;;;;;;;6.15;4.75;;;;;;;28.85;28.28;99639.53;1086733;54;20031;-81
2023/06/12 10:23:53;;;;;;;7.40;4.85;;;;;;;28.86;28.28;99635.66;1086755;54;20030;-82
2023/06/12 10:24:59;;;;;;;5.35;4.32;;;;;;;29.00;28.07;99634.00;1086767;47;20026;-80
2023/06/12 10:26:04;;;;;;;5.85;4.97;;;;;;;29.11;27.89;99643.88;1086652;47;20022;-82
2023/06/12 10:27:07;;;;;;;6.70;4.43;;;;;;;28.54;28.52;99642.25;1086719;46;20033;-81
2023/06/12 10:28:15;;;;;;;6.53;4.40;;;;;;;28.62;28.20;99630.72;1086580;47;20050;-80
2023/06/12 10:29:26;;;;;;;6.13;4.53;;;;;;;28.59;28.80;99645.00;1086718;54;20035;-81
2023/06/12 10:30:30;;;;;;;5.80;4.28;;;;;;;28.72;28.53;99627.16;1086837;54;20074;-81
2023/06/12 10:31:32;;;;;;;5.15;4.40;;;;;;;28.85;28.40;99628.53;1091145;39;20864;-81
2023/06/12 10:32:36;;;;;;;5.65;4.38;;;;;;;28.97;28.09;99631.81;1086640;46;20030;-81
2023/06/12 10:33:37;;;;;;;5.47;4.38;;;;;;;29.00;28.11;99631.25;1086579;47;20057;-83
2023/06/12 10:34:44;;;;;;;6.55;4.63;;;;;;;29.05;27.80;99623.00;1086780;54;20031;-82
2023/06/12 10:35:48;;;;;;;5.97;4.60;;;;;;;29.01;27.63;99632.88;1086814;54;20057;-80
2023/06/12 10:36:52;;;;;;;6.90;4.20;;;;;;;28.75;28.21;99624.69;1086687;54;20042;-81
2023/06/12 10:37:56;;;;;;;5.18;3.85;;;;;;;28.76;28.57;99623.59;1086517;51;20027;-81
2023/06/12 10:39:01;;;;;;;5.45;4.25;;;;;;;28.85;28.01;99621.13;1086651;54;20038;-80
2023/06/12 10:40:12;;;;;;;7.85;4.80;;;;;;;29.16;27.53;99620.22;1086689;47;20067;-82
2023/06/12 10:41:29;;;;;;;5.35;4.35;;;;;;;29.30;27.14;99615.75;1090839;39;21133;-85
2023/06/12 10:42:42;;;;;;;5.57;4.50;;;;;;;29.35;26.82;99626.81;1086641;47;20056;-82
2023/06/12 10:43:47;;;;;;;5.22;4.07;;;;;;;29.36;27.13;99613.84;1086858;54;20034;-81
2023/06/12 10:44:55;;;;;;;5.60;4.20;;;;;;;29.47;27.05;99603.66;1086662;47;20027;-82
2023/06/12 10:45:57;;;;;;;5.47;4.10;;;;;;;29.77;26.49;99599.06;1086657;54;20078;-82
2023/06/12 10:47:03;;;;;;;5.85;4.18;;;;;;;29.61;27.26;99618.44;1086542;54;20929;-81
2023/06/12 10:48:17;;;;;;;6.97;5.13;;;;;;;28.96;27.71;99613.66;1086612;46;20041;-82
2023/06/12 10:49:20;;;;;;;6.97;4.45;;;;;;;29.16;27.50;99609.22;1086590;47;20022;-81
2023/06/12 10:50:27;;;;;;;5.68;4.68;;;;;;;29.46;27.48;99608.31;1086572;47;21012;-80
2023/06/12 10:51:35;;;;;;;7.18;4.05;;;;;;;29.70;27.05;99600.22;1086798;47;20049;-83
2023/06/12 10:52:39;;;;;;;5.85;3.78;;;;;;;29.95;26.96;99603.94;1086716;47;20039;-81
2023/06/12 10:53:43;;;;;;;6.35;3.90;;;;;;;29.27;26.97;99592.38;1086616;47;20034;-81
2023/06/12 10:54:46;;;;;;;6.18;4.50;;;;;;;28.90;27.78;99582.59;1086704;47;20037;-83
2023/06/12 10:55:51;;;;;;;8.35;4.32;;;;;;;28.74;27.90;99601.03;1086814;46;20074;-80
2023/06/12 10:57:06;;;;;;;7.18;5.05;;;;;;;29.06;27.95;99602.63;1086792;54;20030;-83
2023/06/12 10:58:14;;;;;;;5.68;4.55;;;;;;;29.48;27.55;99603.34;1086785;47;20038;-79
2023/06/12 10:59:18;;;;;;;5.40;4.38;;;;;;;29.80;26.92;99604.03;1086790;54;20026;-81
2023/06/12 11:00:23;;;;;;;6.60;4.78;;;;;;;30.17;26.66;99592.53;1086667;47;20031;-81
2023/06/12 11:01:27;;;;;;;8.30;4.80;;;;;;;29.54;27.00;99609.66;1086656;47;20023;-80
2023/06/12 11:02:28;;;;;;;6.03;4.47;;;;;;;29.91;26.42;99604.78;1086544;47;20847;-81
2023/06/12 11:03:34;;;;;;;5.43;4.47;;;;;;;30.01;25.77;99588.22;1086598;54;20109;-82
2023/06/12 11:04:36;;;;;;;5.95;4.00;;;;;;;30.38;25.53;99597.06;1087483;39;21211;-83
2023/06/12 11:05:41;;;;;;;5.28;3.80;;;;;;;30.54;25.41;99593.06;1086537;47;20078;-83
2023/06/12 11:06:48;;;;;;;5.75;4.00;;;;;;;30.71;24.60;99595.41;1087833;46;20038;-81
2023/06/12 11:07:49;;;;;;;5.88;4.03;;;;;;;30.07;25.23;99597.28;1087208;31;20912;-82
2023/06/12 11:08:53;;;;;;;5.28;3.85;;;;;;;30.21;25.25;99597.44;1086523;54;20051;-80
2023/06/12 11:09:54;;;;;;;7.03;4.20;;;;;;;30.35;25.40;99599.25;1086445;47;20040;-82
2023/06/12 11:10:58;;;;;;;8.70;4.43;;;;;;;30.25;25.45;99602.09;1086526;54;20034;-84
2023/06/12 11:12:01;;;;;;;5.57;4.22;;;;;;;30.17;25.59;99594.44;1086163;47;20026;-82
2023/06/12 11:13:05;;;;;;;5.47;4.15;;;;;;;30.40;25.42;99586.56;1086443;54;20841;-81
2023/06/12 11:14:07;;;;;;;5.65;4.00;;;;;;;30.55;25.15;99580.13;1089016;39;20850;-84
2023/06/12 11:15:13;;;;;;;4.88;3.70;;;;;;;30.49;25.24;99576.56;1086491;47;20480;-80
2023/06/12 11:16:19;;;;;;;6.10;4.45;;;;;;;30.12;25.30;99584.28;1086899;39;20800;-81
2023/06/12 11:17:20;;;;;;;6.32;4.15;;;;;;;29.54;26.02;99587.63;1086625;46;20051;-81
2023/06/12 11:18:25;;;;;;;6.38;3.92;;;;;;;29.27;26.04;99592.38;1086642;54;20030;-80
2023/06/12 11:19:27;;;;;;;5.05;3.75;;;;;;;28.68;26.48;99585.63;1086504;47;20038;-81
2023/06/12 11:20:33;;;;;;;5.82;4.00;;;;;;;28.93;26.59;99582.03;1086422;47;20156;-82
2023/06/12 11:21:40;;;;;;;7.07;3.70;;;;;;;28.91;26.37;99578.72;1087936;39;21212;-82
2023/06/12 11:22:41;;;;;;;6.13;4.13;;;;;;;28.53;26.93;99577.41;1086470;47;20030;-82
2023/06/12 11:23:45;;;;;;;7.82;3.88;;;;;;;28.25;27.72;99574.06;1086530;54;20160;-81
2023/06/12 11:24:47;;;;;;;7.68;4.35;;;;;;;28.17;27.87;99584.50;1086494;47;20098;-85
2023/06/12 11:25:52;;;;;;;5.65;4.00;;;;;;;28.09;27.59;99584.25;1086398;54;20042;-81
2023/06/12 11:26:53;;;;;;;7.90;4.07;;;;;;;27.86;27.99;99576.22;1086420;47;20031;-81
2023/06/12 11:27:57;;;;;;;8.55;4.43;;;;;;;27.99;28.15;99574.03;1086403;47;20030;-83
2023/06/12 11:29:15;;;;;;;5.75;4.30;;;;;;;27.86;27.99;99580.88;1086545;54;20030;-78
2023/06/12 11:30:22;;;;;;;6.53;4.30;;;;;;;27.70;27.77;99582.75;1086721;46;20050;-78
2023/06/12 11:31:25;;;;;;;5.57;3.90;;;;;;;27.66;28.09;99574.22;1086513;54;20055;-80
2023/06/12 11:32:26;;;;;;;6.40;3.97;;;;;;;27.55;28.53;99578.88;1086543;47;20023;-78
2023/06/12 11:33:34;;;;;;;5.15;3.83;;;;;;;27.76;28.20;99575.34;1086414;47;20031;-82
2023/06/12 11:34:38;;;;;;;6.13;4.22;;;;;;;27.76;28.10;99581.69;1086538;47;20022;-79
2023/06/12 11:35:41;;;;;;;5.97;4.20;;;;;;;27.90;27.87;99582.00;1086491;47;20047;-80
2023/06/12 11:36:44;;;;;;;6.55;4.72;;;;;;;27.93;28.04;99580.63;1086493;54;20030;-80
2023/06/12 11:37:45;;;;;;;7.40;4.00;;;;;;;27.46;28.47;99580.47;1086571;54;20034;-83
2023/06/12 11:38:49;;;;;;;7.32;4.15;;;;;;;27.37;28.25;99579.31;1086467;54;20034;-82
2023/06/12 11:39:59;;;;;;;5.13;4.07;;;;;;;27.08;28.62;99588.75;1086560;54;20041;-80
2023/06/12 11:41:02;;;;;;;6.60;4.50;;;;;;;27.32;28.46;99576.53;1086430;47;20027;-80
2023/06/12 11:42:05;;;;;;;6.22;4.10;;;;;;;27.41;28.56;99572.19;1086364;47;21390;-79
2023/06/12 11:43:10;;;;;;;6.35;4.35;;;;;;;27.56;28.16;99576.94;1086251;47;21258;-80
2023/06/12 11:44:14;;;;;;;5.25;4.20;;;;;;;27.62;28.67;99572.28;1087772;39;21286;-82
2023/06/12 11:45:21;;;;;;;5.03;4.00;;;;;;;27.85;28.20;99569.06;1086430;47;20143;-81
2023/06/12 11:46:22;;;;;;;5.63;4.35;;;;;;;27.94;27.48;99574.03;1086307;47;20043;-83
2023/06/12 11:47:26;;;;;;;5.10;3.83;;;;;;;27.86;28.03;99564.38;1088136;31;20994;-82
2023/06/12 11:48:33;;;;;;;5.03;3.80;;;;;;;27.92;27.91;99576.22;1086558;47;20031;-81
2023/06/12 11:49:35;;;;;;;5.35;4.32;;;;;;;27.96;27.54;99566.34;1088490;39;20935;-83
2023/06/12 11:50:38;;;;;;;5.40;4.25;;;;;;;27.93;27.76;99569.63;1086541;54;20177;-80
2023/06/12 11:51:40;;;;;;;6.13;4.32;;;;;;;27.95;27.59;99570.19;1086505;54;20030;-82
2023/06/12 11:52:45;;;;;;;8.05;4.63;;;;;;;27.82;27.65;99569.59;1086371;47;20030;-82
2023/06/12 11:53:47;;;;;;;4.95;3.78;;;;;;;27.70;27.87;99571.75;1086377;47;20048;-80
2023/06/12 11:54:59;;;;;;;8.90;4.40;;;;;;;27.84;27.46;99564.66;1086534;47;20030;-84
2023/06/12 11:56:05;;;;;;;5.95;4.43;;;;;;;28.08;27.33;99569.66;1086600;39;21169;-80
2023/06/12 11:57:15;;;;;;;5.28;4.05;;;;;;;27.90;27.59;99560.00;1086441;54;20031;-81
2023/06/12 11:58:19;;;;;;;5.32;4.07;;;;;;;28.03;26.96;99564.97;1086426;47;20098;-79
2023/06/12 11:59:21;;;;;;;6.60;4.80;;;;;;;27.94;27.21;99554.81;1086496;47;21578;-81
2023/06/12 12:00:30;;;;;;;5.65;4.63;;;;;;;27.96;27.22;99547.13;1086473;54;20885;-79
2023/06/12 12:01:37;;;;;;;5.55;4.18;;;;;;;28.09;27.37;99554.84;1086530;47;20027;-82
2023/06/12 12:02:44;;;;;;;6.97;4.50;;;;;;;28.28;26.78;99551.56;1086594;47;20038;-80
2023/06/12 12:03:46;;;;;;;5.15;3.92;;;;;;;28.44;26.76;99544.94;1086533;54;20117;-80
2023/06/12 12:04:50;;;;;;;6.82;4.22;;;;;;;28.18;27.01;99547.69;1086624;54;20034;-80
2023/06/12 12:05:52;;;;;;;6.97;4.70;;;;;;;27.99;27.30;99541.06;1086441;47;20027;-80
2023/06/12 12:06:57;;;;;;;6.93;4.43;;;;;;;27.92;27.38;99535.03;1086479;47;21016;-83
2023/06/12 12:08:03;;;;;;;6.85;5.00;;;;;;;27.58;27.55;99546.50;1090580;39;20828;-80
2023/06/12 12:09:04;;;;;;;6.15;4.00;;;;;;;27.63;27.48;99550.06;1086500;54;20055;-80
2023/06/12 12:10:10;;;;;;;7.38;3.90;;;;;;;27.78;27.33;99543.78;1086571;54;20034;-81
2023/06/12 12:11:16;;;;;;;8.10;4.55;;;;;;;27.53;27.99;99541.81;1086546;54;20026;-79
2023/06/12 12:12:20;;;;;;;6.88;4.90;;;;;;;27.60;28.14;99538.78;1089080;39;20916;-81
2023/06/12 12:13:23;;;;;;;5.45;4.13;;;;;;;27.47;27.86;99540.97;1086582;47;20022;-79
2023/06/12 12:14:24;;;;;;;5.05;3.80;;;;;;;27.79;27.29;99542.69;1086461;47;20088;-83
2023/06/12 12:15:33;;;;;;;5.68;4.10;;;;;;;27.92;27.19;99535.81;1086440;47;20041;-81
2023/06/12 12:16:38;;;;;;;5.15;3.97;;;;;;;28.14;27.01;99543.03;1086419;47;20022;-80
2023/06/12 12:17:43;;;;;;;5.60;4.18;;;;;;;28.27;26.86;99545.25;1086498;54;20111;-79
2023/06/12 12:18:44;;;;;;;5.35;4.28;;;;;;;28.38;26.48;99532.31;1086497;54;20030;-80
2023/06/12 12:19:48;;;;;;;5.72;3.92;;;;;;;28.35;26.38;99546.59;1086516;47;20030;-81
2023/06/12 12:20:53;;;;;;;5.70;4.53;;;;;;;28.36;25.98;99541.94;1086409;47;20102;-78
2023/06/12 12:21:54;;;;;;;6.15;4.30;;;;;;;28.36;26.00;99540.00;1086488;54;20790;-83
2023/06/12 12:23:00;;;;;;;5.50;3.85;;;;;;;28.32;25.96;99538.91;1086483;54;20042;-83
2023/06/12 12:24:01;;;;;;;7.82;3.92;;;;;;;28.32;25.79;99538.91;1086854;47;20078;-82
2023/06/12 12:25:07;;;;;;;5.82;3.70;;;;;;;28.37;25.81;99540.84;1086742;46;20034;-80
2023/06/12 12:26:11;;;;;;;6.13;4.00;;;;;;;28.34;26.08;99536.69;1086726;54;20066;-78
2023/06/12 12:27:15;;;;;;;5.85;3.88;;;;;;;28.46;26.08;99534.50;1086698;47;20034;-80
2023/06/12 12:28:19;;;;;;;5.35;3.90;;;;;;;28.46;26.14;99534.50;1086683;47;20027;-79
2023/06/12 12:29:22;;;;;;;6.18;4.07;;;;;;;28.53;26.00;99533.41;1086823;47;20048;-82
2023/06/12 12:30:26;;;;;;;9.10;4.50;;;;;;;28.44;26.05;99531.19;1086835;54;20060;-79
2023/06/12 12:31:32;;;;;;;6.63;4.18;;;;;;;28.51;25.99;99533.66;1086840;47;20030;-79
2023/06/12 12:32:36;;;;;;;5.15;3.67;;;;;;;28.23;26.02;99535.06;1086846;47;20113;-81
2023/06/12 12:33:37;;;;;;;6.85;4.03;;;;;;;28.08;26.17;99531.22;1089366;39;21174;-79
2023/06/12 12:34:43;;;;;;;9.00;4.78;;;;;;;27.97;25.86;99535.00;1086845;54;20034;-83
2023/06/12 12:35:47;;;;;;;6.40;4.10;;;;;;;28.02;25.74;99541.34;1086891;54;20061;-82
2023/06/12 12:36:49;;;;;;;6.63;4.45;;;;;;;28.17;25.61;99532.31;1086851;54;20057;-80
2023/06/12 12:37:54;;;;;;;5.07;4.00;;;;;;;28.25;25.36;99527.34;1086812;54;20131;-80
2023/06/12 12:38:55;;;;;;;5.68;4.20;;;;;;;28.35;24.79;99532.84;1086791;54;20110;-81
2023/06/12 12:39:58;;;;;;;4.95;3.75;;;;;;;28.43;25.15;99521.34;1086759;47;20070;-81
2023/06/12 12:41:17;;;;;;;5.45;3.83;;;;;;;28.56;24.94;99522.69;1090040;39;21237;-81
2023/06/12 12:42:21;;;;;;;5.30;3.70;;;;;;;28.52;24.87;99515.28;1086804;54;20049;-81
2023/06/12 12:43:25;;;;;;;4.78;3.67;;;;;;;28.67;24.83;99520.72;1086799;54;20051;-80
2023/06/12 12:44:26;;;;;;;4.72;3.63;;;;;;;28.67;25.05;99520.72;1086785;46;20042;-80
2023/06/12 12:45:30;;;;;;;5.47;3.65;;;;;;;28.77;24.78;99518.00;1086723;47;20881;-82
2023/06/12 12:46:34;;;;;;;4.72;3.50;;;;;;;28.78;24.66;99522.38;1086862;46;20030;-80
2023/06/12 12:47:40;;;;;;;5.00;3.83;;;;;;;28.77;24.63;99518.00;1087024;54;20034;-79
2023/06/12 12:48:43;;;;;;;5.05;4.03;;;;;;;28.46;24.93;99518.00;1086891;46;20026;-80
2023/06/12 12:49:45;;;;;;;5.40;4.25;;;;;;;28.59;25.04;99513.88;1086792;47;21786;-81
2023/06/12 12:50:48;;;;;;;5.93;3.72;;;;;;;28.63;25.19;99517.72;1086762;51;20030;-80
2023/06/12 12:51:49;;;;;;;6.65;4.50;;;;;;;28.53;25.18;99516.91;1086866;54;20712;-80
2023/06/12 12:52:53;;;;;;;5.63;4.03;;;;;;;28.21;25.89;99510.59;1086838;47;20026;-81
2023/06/12 12:53:58;;;;;;;6.57;4.53;;;;;;;27.97;25.84;99515.78;1087006;54;20038;-80
2023/06/12 12:54:59;;;;;;;6.25;4.70;;;;;;;28.16;25.90;99519.66;1086909;46;20023;-80
2023/06/12 12:56:03;;;;;;;10.90;4.70;;;;;;;28.07;25.61;99515.81;1087037;54;20103;-80
2023/06/12 12:57:08;;;;;;;5.65;3.60;;;;;;;28.10;25.72;99512.53;1086979;54;20037;-80
2023/06/12 12:58:12;;;;;;;5.45;4.00;;;;;;;28.26;25.36;99518.03;1087208;47;20022;-82
2023/06/12 12:59:13;;;;;;;6.32;3.97;;;;;;;28.38;25.14;99509.53;1087052;47;20038;-80